createdAt,value
2023-02-11T00:01:25.078Z,1.70
2023-02-11T00:03:53.615Z,2.50
2023-02-11T00:06:25.008Z,2.80
2023-02-11T00:08:53.022Z,2.90
2023-02-11T00:11:22.688Z,2.60
2023-02-11T00:13:50.720Z,2.60
2023-02-11T00:16:21.397Z,2.10
2023-02-11T00:18:50.521Z,2.70
2023-02-11T00:21:21.347Z,3.00
2023-02-11T00:23:49.620Z,3.40
2023-02-11T00:26:25.443Z,3.30
2023-02-11T00:28:53.654Z,2.60
2023-02-11T00:31:23.399Z,3.00
2023-02-11T00:33:51.778Z,2.40
2023-02-11T00:36:26.203Z,2.00
2023-02-11T00:38:56.066Z,3.60
2023-02-11T00:41:24.547Z,3.10
2023-02-11T00:43:52.673Z,3.10
2023-02-11T00:46:21.995Z,4.10
2023-02-11T00:48:51.929Z,3.80
2023-02-11T00:51:22.448Z,2.90
2023-02-11T00:53:50.699Z,2.70
2023-02-11T00:56:19.008Z,3.40
2023-02-11T00:58:47.156Z,2.80
2023-02-11T01:01:15.304Z,2.40
2023-02-11T01:03:44.474Z,3.70
2023-02-11T01:06:12.760Z,3.40
2023-02-11T01:08:40.959Z,2.70
2023-02-11T01:11:16.688Z,3.00
2023-02-11T01:13:47.817Z,3.90
2023-02-11T01:16:18.740Z,3.50
2023-02-11T01:18:47.405Z,3.40
2023-02-11T01:21:16.319Z,3.50
2023-02-11T01:23:44.544Z,4.10
2023-02-11T01:26:13.831Z,3.60
2023-02-11T01:28:41.935Z,3.80
2023-02-11T01:31:10.284Z,3.90
2023-02-11T01:33:38.647Z,2.80
2023-02-11T01:36:08.586Z,3.20
2023-02-11T01:38:37.001Z,3.60
2023-02-11T01:41:11.963Z,3.10
2023-02-11T01:43:46.311Z,3.40
2023-02-11T01:46:31.709Z,3.70
2023-02-11T01:49:18.655Z,3.60
2023-02-11T01:52:06.495Z,3.20
2023-02-11T01:54:57.069Z,1.80
2023-02-11T01:57:29.548Z,3.50
2023-02-11T02:00:21.079Z,3.30
2023-02-11T02:03:22.726Z,3.30
2023-02-11T02:06:15.451Z,2.90
2023-02-11T02:11:18.687Z,3.20
2023-02-11T02:13:47.068Z,3.80
2023-02-11T02:16:18.021Z,3.20
2023-02-11T02:19:14.190Z,3.00
2023-02-11T02:22:07.996Z,3.70
2023-02-11T02:24:42.043Z,2.70
2023-02-11T02:27:20.123Z,3.40
2023-02-11T02:29:54.317Z,3.70
2023-02-11T02:32:22.343Z,3.30
2023-02-11T02:34:58.381Z,3.00
2023-02-11T02:38:00.179Z,3.30
2023-02-11T02:40:45.030Z,3.10
2023-02-11T02:43:15.444Z,3.40
2023-02-11T02:45:43.418Z,4.30
2023-02-11T02:48:44.827Z,2.30
2023-02-11T02:51:42.428Z,5.30
2023-02-11T02:54:29.580Z,2.90
2023-02-11T02:57:06.672Z,3.10
2023-02-11T02:59:50.051Z,2.80
2023-02-11T03:02:35.105Z,2.70
2023-02-11T03:05:32.555Z,3.00
2023-02-11T03:08:12.379Z,4.10
2023-02-11T03:10:51.381Z,4.10
2023-02-11T03:13:25.378Z,3.20
2023-02-11T03:15:57.452Z,2.80
2023-02-11T03:18:28.971Z,3.40
2023-02-11T03:20:57.712Z,2.80
2023-02-11T03:23:35.467Z,2.90
2023-02-11T03:26:12.513Z,2.90
2023-02-11T03:29:03.854Z,2.50
2023-02-11T03:31:42.386Z,2.60
2023-02-11T03:34:16.831Z,2.90
2023-02-11T03:36:49.816Z,2.50
2023-02-11T03:39:38.017Z,3.30
2023-02-11T03:42:09.476Z,2.70
2023-02-11T03:44:50.066Z,3.10
2023-02-11T03:47:23.629Z,3.00
2023-02-11T03:49:54.782Z,3.00
2023-02-11T03:52:24.892Z,1.70
2023-02-11T03:54:57.204Z,2.50
2023-02-11T03:57:25.207Z,3.10
2023-02-11T03:59:58.836Z,2.80
2023-02-11T04:02:33.863Z,2.60
2023-02-11T04:05:02.373Z,2.50
2023-02-11T04:07:30.832Z,3.10
2023-02-11T04:09:58.850Z,3.80
2023-02-11T04:12:26.989Z,3.10
2023-02-11T04:14:55.106Z,3.30
2023-02-11T04:17:23.450Z,2.80
2023-02-11T04:19:51.415Z,2.90
2023-02-11T04:22:19.514Z,2.90
2023-02-11T04:24:47.653Z,4.50
2023-02-11T04:27:15.992Z,6.50
2023-02-11T04:29:44.275Z,2.60
2023-02-11T04:32:12.548Z,3.50
2023-02-11T04:34:40.721Z,3.00
2023-02-11T04:37:08.941Z,2.80
2023-02-11T04:39:37.003Z,2.80
2023-02-11T04:42:05.448Z,2.30
2023-02-11T04:44:33.917Z,2.90
2023-02-11T04:47:02.250Z,2.70
2023-02-11T04:49:30.929Z,3.10
2023-02-11T04:51:59.061Z,2.20
2023-02-11T04:54:27.641Z,2.70
2023-02-11T04:56:55.751Z,2.80
2023-02-11T04:59:24.808Z,2.90
2023-02-11T05:01:52.897Z,3.60
2023-02-11T05:04:20.978Z,2.60
2023-02-11T05:06:49.245Z,2.80
2023-02-11T05:09:17.829Z,2.80
2023-02-11T05:11:45.792Z,2.60
2023-02-11T05:14:13.802Z,4.00
2023-02-11T05:16:41.945Z,3.60
2023-02-11T05:19:10.406Z,4.30
2023-02-11T05:21:38.576Z,2.60
2023-02-11T05:24:07.461Z,2.30
2023-02-11T05:26:35.658Z,3.30
2023-02-11T05:29:03.761Z,2.90
2023-02-11T05:31:33.002Z,3.80
2023-02-11T05:34:04.022Z,3.20
2023-02-11T05:36:33.484Z,2.90
2023-02-11T05:39:01.720Z,2.50
2023-02-11T05:41:30.007Z,2.60
2023-02-11T05:43:58.303Z,2.50
2023-02-11T05:46:26.450Z,4.60
2023-02-11T05:48:56.666Z,7.40
2023-02-11T05:51:25.461Z,2.80
2023-02-11T05:53:53.801Z,2.80
2023-02-11T05:56:21.843Z,8.00
2023-02-11T05:58:50.066Z,12.40
2023-02-11T06:01:19.062Z,2.80
2023-02-11T06:03:47.422Z,2.30
2023-02-11T06:06:15.934Z,2.80
2023-02-11T06:08:44.098Z,2.80
2023-02-11T06:11:15.488Z,2.10
2023-02-11T06:13:44.032Z,3.00
2023-02-11T06:16:12.353Z,2.60
2023-02-11T06:18:40.579Z,2.70
2023-02-11T06:21:10.725Z,10.60
2023-02-11T06:23:38.789Z,13.90
2023-02-11T06:26:09.141Z,14.00
2023-02-11T06:28:39.382Z,3.80
2023-02-11T06:31:11.956Z,3.40
2023-02-11T06:33:40.362Z,1.80
2023-02-11T06:36:22.795Z,3.00
2023-02-11T06:38:51.260Z,3.60
2023-02-11T06:41:20.419Z,14.10
2023-02-11T06:43:49.286Z,13.60
2023-02-11T06:46:17.617Z,14.30
2023-02-11T06:48:46.004Z,14.10
2023-02-11T06:51:15.316Z,15.40
2023-02-11T06:53:45.918Z,25.30
2023-02-11T06:56:21.958Z,25.70
2023-02-11T06:58:54.879Z,28.00
2023-02-11T07:01:24.508Z,27.90
2023-02-11T07:03:53.701Z,28.80
2023-02-11T07:06:24.816Z,21.90
2023-02-11T07:08:53.214Z,20.30
2023-02-11T07:11:25.033Z,18.60
2023-02-11T07:13:55.398Z,18.80
2023-02-11T07:16:23.816Z,21.10
2023-02-11T07:18:52.164Z,28.00
2023-02-11T07:21:22.673Z,34.00
2023-02-11T07:23:51.879Z,27.70
2023-02-11T07:26:29.364Z,24.30
2023-02-11T07:28:57.680Z,27.20
2023-02-11T07:31:29.034Z,30.20
2023-02-11T07:34:00.092Z,30.50
2023-02-11T07:36:30.596Z,24.50
2023-02-11T07:38:59.083Z,20.10
2023-02-11T07:41:27.881Z,13.80
2023-02-11T07:43:56.724Z,9.90
2023-02-11T07:46:27.119Z,9.00
2023-02-11T07:48:56.133Z,10.50
2023-02-11T07:51:27.065Z,9.80
2023-02-11T07:53:56.698Z,11.50
2023-02-11T07:56:24.864Z,19.40
2023-02-11T07:58:53.644Z,12.90
2023-02-11T08:01:25.439Z,11.10
2023-02-11T08:03:54.793Z,13.70
2023-02-11T08:06:24.923Z,13.60
2023-02-11T08:08:53.252Z,12.70
2023-02-11T08:11:24.521Z,13.10
2023-02-11T08:13:53.819Z,11.40
2023-02-11T08:16:31.342Z,11.00
2023-02-11T08:19:02.296Z,10.50
2023-02-11T08:21:30.756Z,11.70
2023-02-11T08:23:59.429Z,10.60
2023-02-11T08:26:29.682Z,11.40
2023-02-11T08:28:58.954Z,12.00
2023-02-11T08:31:34.260Z,10.60
2023-02-11T08:34:02.788Z,8.10
2023-02-11T08:36:34.390Z,9.70
2023-02-11T08:39:18.053Z,9.80
2023-02-11T08:41:50.471Z,12.70
2023-02-11T08:44:20.138Z,13.40
2023-02-11T08:46:49.107Z,18.80
2023-02-11T08:49:17.329Z,17.70
2023-02-11T08:51:46.612Z,10.60
2023-02-11T08:54:15.215Z,14.50
2023-02-11T08:56:43.467Z,11.80
2023-02-11T08:59:14.758Z,11.20
2023-02-11T09:01:44.667Z,13.80
2023-02-11T09:04:13.626Z,8.80
2023-02-11T09:06:42.209Z,9.70
2023-02-11T09:09:15.220Z,15.40
2023-02-11T09:11:44.873Z,19.20
2023-02-11T09:14:22.340Z,15.00
2023-02-11T09:16:51.865Z,9.20
2023-02-11T09:19:21.413Z,11.90
2023-02-11T09:21:49.883Z,11.20
2023-02-11T09:24:18.672Z,9.20
2023-02-11T09:26:46.865Z,11.60
2023-02-11T09:29:15.021Z,10.90
2023-02-11T09:31:43.281Z,11.50
2023-02-11T09:34:12.093Z,11.10
2023-02-11T09:36:41.393Z,11.70
2023-02-11T09:39:14.466Z,11.10
2023-02-11T09:41:51.816Z,10.70
2023-02-11T09:44:25.613Z,10.60
2023-02-11T09:47:01.867Z,10.70
2023-02-11T09:49:44.648Z,14.30
2023-02-11T09:52:19.071Z,12.90
2023-02-11T09:54:56.908Z,12.50
2023-02-11T09:57:36.511Z,14.60
2023-02-11T10:00:24.850Z,11.80
2023-02-11T10:02:57.746Z,12.30
2023-02-11T10:06:19.778Z,13.50
2023-02-11T10:09:09.687Z,11.50
2023-02-11T10:11:48.089Z,12.20
2023-02-11T10:14:16.088Z,12.50
2023-02-11T10:16:54.715Z,12.70
2023-02-11T10:19:47.429Z,13.20
2023-02-11T10:22:34.079Z,14.40
2023-02-11T10:25:17.836Z,11.80
2023-02-11T10:27:46.416Z,13.60
2023-02-11T10:30:38.001Z,12.50
2023-02-11T10:33:50.996Z,13.80
2023-02-11T10:36:28.523Z,14.10
2023-02-11T10:39:00.004Z,15.10
2023-02-11T10:41:34.490Z,12.00
2023-02-11T10:44:03.286Z,12.50
2023-02-11T10:46:35.375Z,13.00
2023-02-11T10:49:04.010Z,12.50
2023-02-11T10:51:34.336Z,13.90
2023-02-11T10:54:19.743Z,11.50
2023-02-11T10:56:58.609Z,12.70
2023-02-11T10:59:29.368Z,14.00
2023-02-11T11:02:08.073Z,12.00
2023-02-11T11:04:41.004Z,11.60
2023-02-11T11:07:21.408Z,12.10
2023-02-11T11:09:55.580Z,11.60
2023-02-11T11:12:45.809Z,12.90
2023-02-11T11:15:23.193Z,11.10
2023-02-11T11:18:20.940Z,11.60
2023-02-11T11:20:59.354Z,10.40
2023-02-11T11:23:30.043Z,11.30
2023-02-11T11:26:13.749Z,12.20
2023-02-11T11:28:59.135Z,10.20
2023-02-11T11:31:32.785Z,9.70
2023-02-11T11:34:14.951Z,17.00
2023-02-11T11:36:44.252Z,14.50
2023-02-11T11:39:33.910Z,16.30
2023-02-11T11:42:08.255Z,14.60
2023-02-11T11:44:39.921Z,15.90
2023-02-11T11:47:29.811Z,12.80
2023-02-11T11:50:29.112Z,16.00
2023-02-11T11:53:00.330Z,11.30
2023-02-11T11:55:35.047Z,10.60
2023-02-11T11:58:04.865Z,14.10
2023-02-11T12:01:06.597Z,14.90
2023-02-11T12:03:37.255Z,12.30
2023-02-11T12:06:39.246Z,13.30
2023-02-11T12:09:27.056Z,11.20
2023-02-11T12:12:41.674Z,12.80
2023-02-11T12:15:54.926Z,12.90
2023-02-11T12:18:45.499Z,13.10
2023-02-11T12:21:29.701Z,13.20
2023-02-11T12:24:17.484Z,14.50
2023-02-11T12:26:56.633Z,15.30
2023-02-11T12:29:24.698Z,18.30
2023-02-11T12:32:14.197Z,13.50
2023-02-11T12:35:13.274Z,11.70
2023-02-11T12:38:05.436Z,13.20
2023-02-11T12:41:02.927Z,12.20
2023-02-11T12:43:41.168Z,13.30
2023-02-11T12:46:16.030Z,12.30
2023-02-11T12:48:46.996Z,11.40
2023-02-11T12:51:27.563Z,12.70
2023-02-11T12:54:11.078Z,14.00
2023-02-11T12:56:51.129Z,12.60
2023-02-11T12:59:57.847Z,12.80
2023-02-11T13:02:56.787Z,13.90
2023-02-11T13:05:27.712Z,14.90
2023-02-11T13:08:06.034Z,15.80
2023-02-11T13:10:37.423Z,13.80
2023-02-11T13:13:21.274Z,11.20
2023-02-11T13:15:55.334Z,13.00
2023-02-11T13:18:32.558Z,14.50
2023-02-11T13:21:16.254Z,11.70
2023-02-11T13:26:32.807Z,12.90
2023-02-11T13:29:16.106Z,13.30
2023-02-11T13:31:56.913Z,11.80
2023-02-11T13:34:43.406Z,14.60
2023-02-11T13:37:21.476Z,13.80
2023-02-11T13:40:01.364Z,13.10
2023-02-11T13:42:31.663Z,11.00
2023-02-11T13:45:01.054Z,10.80
2023-02-11T13:47:33.348Z,13.30
2023-02-11T13:50:05.739Z,13.60
2023-02-11T13:52:39.077Z,15.70
2023-02-11T13:55:22.691Z,13.80
2023-02-11T14:00:33.940Z,13.10
2023-02-11T14:03:29.853Z,11.90
2023-02-11T14:06:30.712Z,12.80
2023-02-11T14:09:11.569Z,12.70
2023-02-11T14:11:45.738Z,11.30
2023-02-11T14:14:33.918Z,10.20
2023-02-11T14:17:08.176Z,11.20
2023-02-11T14:19:47.825Z,10.10
2023-02-11T14:22:18.911Z,11.10
2023-02-11T14:25:20.409Z,9.20
2023-02-11T14:27:51.534Z,10.10
2023-02-11T14:30:39.569Z,9.20
2023-02-11T14:33:35.088Z,10.00
2023-02-11T14:36:23.342Z,8.80
2023-02-11T14:39:14.088Z,8.40
2023-02-11T14:41:44.597Z,9.60
2023-02-11T14:44:23.498Z,10.20
2023-02-11T14:46:55.604Z,9.10
2023-02-11T14:49:35.284Z,8.50
2023-02-11T14:52:37.453Z,10.50
2023-02-11T14:55:11.331Z,9.20
2023-02-11T14:57:39.412Z,9.70
2023-02-11T15:00:19.754Z,8.30
2023-02-11T15:02:48.530Z,7.60
2023-02-11T15:05:29.069Z,8.40
2023-02-11T15:08:02.025Z,8.40
2023-02-11T15:10:37.843Z,8.60
2023-02-11T15:13:06.141Z,8.00
2023-02-11T15:15:36.638Z,7.20
2023-02-11T15:18:05.748Z,15.00
2023-02-11T15:20:36.034Z,11.60
2023-02-11T15:23:09.386Z,9.80
2023-02-11T15:25:44.415Z,9.10
2023-02-11T15:28:31.453Z,9.20
2023-02-11T15:31:06.748Z,9.10
2023-02-11T15:33:34.952Z,9.00
2023-02-11T15:36:03.959Z,8.00
2023-02-11T15:38:32.320Z,8.70
2023-02-11T15:41:03.391Z,9.40
2023-02-11T15:44:04.383Z,10.00
2023-02-11T15:46:38.716Z,7.60
2023-02-11T15:49:08.637Z,10.10
2023-02-11T15:51:40.007Z,12.60
2023-02-11T15:54:18.058Z,10.40
2023-02-11T15:56:50.871Z,8.70
2023-02-11T15:59:38.397Z,11.10
2023-02-11T16:02:16.102Z,9.90
2023-02-11T16:05:00.014Z,7.10
2023-02-11T16:07:57.453Z,6.50
2023-02-11T16:10:30.736Z,8.10
2023-02-11T16:13:20.008Z,8.90
2023-02-11T16:15:51.110Z,7.20
2023-02-11T16:18:37.723Z,8.20
2023-02-11T16:21:16.283Z,8.40
2023-02-11T16:23:51.585Z,7.80
2023-02-11T16:26:26.508Z,8.00
2023-02-11T16:29:13.289Z,7.30
2023-02-11T16:31:44.841Z,5.50
2023-02-11T16:34:21.193Z,7.80
2023-02-11T16:36:50.844Z,7.50
2023-02-11T16:39:23.699Z,5.30
2023-02-11T16:41:52.594Z,5.80
2023-02-11T16:44:20.642Z,8.40
2023-02-11T16:46:48.843Z,6.00
2023-02-11T16:49:24.124Z,8.10
2023-02-11T16:51:56.949Z,6.50
2023-02-11T16:54:25.277Z,7.60
2023-02-11T16:56:53.549Z,8.50
2023-02-11T16:59:21.926Z,7.60
2023-02-11T17:01:52.136Z,7.90
2023-02-11T17:04:25.041Z,8.30
2023-02-11T17:06:53.133Z,7.50
2023-02-11T17:09:24.552Z,8.90
2023-02-11T17:11:52.865Z,11.80
2023-02-11T17:14:21.017Z,12.00
2023-02-11T17:16:49.250Z,11.00
2023-02-11T17:19:22.362Z,8.30
2023-02-11T17:21:52.780Z,16.10
2023-02-11T17:24:21.988Z,17.10
2023-02-11T17:26:50.760Z,14.50
2023-02-11T17:29:24.544Z,14.80
2023-02-11T17:31:53.289Z,11.70
2023-02-11T17:34:23.040Z,12.70
2023-02-11T17:36:51.859Z,16.30
2023-02-11T17:39:21.171Z,13.10
2023-02-11T17:41:49.498Z,15.50
2023-02-11T17:44:17.673Z,14.90
2023-02-11T17:46:45.757Z,20.10
2023-02-11T17:49:13.809Z,16.10
2023-02-11T17:51:42.064Z,14.30
2023-02-11T17:54:17.336Z,15.00
2023-02-11T17:56:46.853Z,15.10
2023-02-11T17:59:14.981Z,14.70
2023-02-11T18:01:43.481Z,14.90
2023-02-11T18:04:18.399Z,13.90
2023-02-11T18:06:46.553Z,15.30
2023-02-11T18:09:14.789Z,15.80
2023-02-11T18:11:42.878Z,14.90
2023-02-11T18:14:11.289Z,15.60
2023-02-11T18:16:43.185Z,15.70
2023-02-11T18:19:12.615Z,16.50
2023-02-11T18:21:40.779Z,15.40
2023-02-11T18:24:09.062Z,17.90
2023-02-11T18:26:37.360Z,15.00
2023-02-11T18:29:07.111Z,15.80
2023-02-11T18:31:35.516Z,15.80
2023-02-11T18:34:07.619Z,19.70
2023-02-11T18:36:36.307Z,17.70
2023-02-11T18:39:05.951Z,16.50
2023-02-11T18:41:34.094Z,16.00
2023-02-11T18:44:03.392Z,17.20
2023-02-11T18:46:31.766Z,19.90
2023-02-11T18:48:59.942Z,16.50
2023-02-11T18:51:28.485Z,18.00
2023-02-11T18:53:56.588Z,19.50
2023-02-11T18:56:27.865Z,17.90
2023-02-11T18:58:57.298Z,15.30
2023-02-11T19:01:27.594Z,15.70
2023-02-11T19:03:58.344Z,15.50
2023-02-11T19:06:29.099Z,17.70
2023-02-11T19:09:00.292Z,15.30
2023-02-11T19:11:50.057Z,15.40
2023-02-11T19:14:20.078Z,13.20
2023-02-11T19:16:50.743Z,15.60
2023-02-11T19:19:20.107Z,15.70
2023-02-11T19:21:48.947Z,16.20
2023-02-11T19:24:21.436Z,16.90
2023-02-11T19:26:51.804Z,17.40
2023-02-11T19:29:19.865Z,16.80
2023-02-11T19:31:48.390Z,17.00
2023-02-11T19:34:19.987Z,16.00
2023-02-11T19:36:49.935Z,15.50
2023-02-11T19:39:18.568Z,16.30
2023-02-11T19:41:46.782Z,15.70
2023-02-11T19:44:15.009Z,16.90
2023-02-11T19:46:43.199Z,16.60
2023-02-11T19:49:16.517Z,16.30
2023-02-11T19:51:44.861Z,16.70
2023-02-11T19:54:13.182Z,16.90
2023-02-11T19:56:41.515Z,17.70
2023-02-11T19:59:09.727Z,17.00
2023-02-11T20:01:37.859Z,16.90
2023-02-11T20:04:06.253Z,16.50
2023-02-11T20:06:35.474Z,16.60
2023-02-11T20:09:10.129Z,17.80
2023-02-11T20:11:39.014Z,17.10
2023-02-11T20:14:07.560Z,16.70
2023-02-11T20:16:47.660Z,14.60
2023-02-11T20:19:20.049Z,16.70
2023-02-11T20:21:51.169Z,15.90
2023-02-11T20:24:20.543Z,17.10
2023-02-11T20:26:49.603Z,17.40
2023-02-11T20:29:18.143Z,15.60
2023-02-11T20:31:46.734Z,16.10
2023-02-11T20:34:17.688Z,16.80
2023-02-11T20:36:52.089Z,17.00
2023-02-11T20:39:22.523Z,15.00
2023-02-11T20:41:51.818Z,18.60
2023-02-11T20:44:23.964Z,15.30
2023-02-11T20:46:54.633Z,15.20
2023-02-11T20:49:24.410Z,18.30
2023-02-11T20:51:54.107Z,17.80
2023-02-11T20:54:23.831Z,16.40
2023-02-11T20:56:55.553Z,15.20
2023-02-11T20:59:24.501Z,17.40
2023-02-11T21:01:55.780Z,17.10
2023-02-11T21:04:29.692Z,13.50
2023-02-11T21:07:01.704Z,17.80
2023-02-11T21:09:33.362Z,16.60
2023-02-11T21:12:02.455Z,18.20
2023-02-11T21:14:30.718Z,17.70
2023-02-11T21:16:59.043Z,17.80
2023-02-11T21:19:27.300Z,21.30
2023-02-11T21:21:57.349Z,22.10
2023-02-11T21:24:25.700Z,19.90
2023-02-11T21:26:54.806Z,16.40
2023-02-11T21:29:22.921Z,17.80
2023-02-11T21:31:51.507Z,15.90
2023-02-11T21:34:20.248Z,15.00
2023-02-11T21:36:51.310Z,15.00
2023-02-11T21:39:20.479Z,16.40
2023-02-11T21:41:48.574Z,16.30
2023-02-11T21:44:16.600Z,15.60
2023-02-11T21:46:44.871Z,17.80
2023-02-11T21:49:13.111Z,16.20
2023-02-11T21:51:41.253Z,14.80
2023-02-11T21:54:11.681Z,17.80
2023-02-11T21:56:40.712Z,17.10
2023-02-11T21:59:13.993Z,16.50
2023-02-11T22:01:42.092Z,15.60
2023-02-11T22:04:10.202Z,17.00
2023-02-11T22:06:38.707Z,14.90
2023-02-11T22:09:09.038Z,15.80
2023-02-11T22:11:37.453Z,15.40
2023-02-11T22:14:05.517Z,14.50
2023-02-11T22:16:33.803Z,16.70
2023-02-11T22:19:07.216Z,15.90
2023-02-11T22:24:03.404Z,15.60
2023-02-11T22:26:31.533Z,15.30
2023-02-11T22:28:59.570Z,15.00
2023-02-11T22:31:30.850Z,16.50
2023-02-11T22:34:00.489Z,17.30
2023-02-11T22:36:31.497Z,18.40
2023-02-11T22:39:08.908Z,16.80
2023-02-11T22:41:40.599Z,18.90
2023-02-11T22:44:09.748Z,19.90
2023-02-11T22:46:38.698Z,20.10
2023-02-11T22:49:07.490Z,20.00
2023-02-11T22:51:35.893Z,19.10
2023-02-11T22:54:06.891Z,18.40
2023-02-11T22:56:35.333Z,19.30
2023-02-11T22:59:07.604Z,18.50
2023-02-11T23:01:36.148Z,19.40
2023-02-11T23:04:06.434Z,16.90
2023-02-11T23:06:34.968Z,17.00
2023-02-11T23:09:08.505Z,17.50
2023-02-11T23:14:05.445Z,17.90
2023-02-11T23:16:34.989Z,18.30
2023-02-11T23:19:07.622Z,16.90
2023-02-11T23:21:38.614Z,17.00
2023-02-11T23:24:10.965Z,16.30
2023-02-11T23:26:40.670Z,16.60
2023-02-11T23:29:09.354Z,17.00
2023-02-11T23:31:40.499Z,16.50
2023-02-11T23:34:09.403Z,16.50
2023-02-11T23:36:37.988Z,16.40
2023-02-11T23:39:06.433Z,16.50
2023-02-11T23:41:34.905Z,15.50
2023-02-11T23:44:02.921Z,15.50
2023-02-11T23:46:30.927Z,14.00
2023-02-11T23:48:59.125Z,15.60
2023-02-11T23:51:27.185Z,14.10
2023-02-11T23:53:56.319Z,13.90
2023-02-11T23:56:27.740Z,14.80
2023-02-11T23:58:58.725Z,13.60
